Risoy — LG4516 — position and weather

sailwx.info

Track history (hours):
 
Tides and Currents Weather Stations Pressure Air Temp Water Temp Dewpoint Dewpoint Depression Visibility Wind Speed Wind Dir Waves Ship Positions

Risoy

Last reported at 2017-Nov-16 02:40 UTC. Time now 2017-Dec-13 07:13 UTC.
Position N 58°52' E 009°25'.
Warning: this ship's position is 27 days out of date.

Length 14 m.

Type: Fishing. MMSI: 257308740.

Date/timePositionNaut miles runAvg speedWind from/ knotsBaromVisibWave heightAir tempDewpointWater temp
2017-Nov-16 02:40N 58°52' E 009°25'0 0.0
2017-Nov-16 02:28N 58°52' E 009°25'0 0.0
2017-Nov-16 01:58N 58°52' E 009°25'0 0.0
2017-Nov-16 01:28N 58°52' E 009°25'0 0.0
2017-Nov-16 00:58N 58°52' E 009°25'0 0.0
2017-Nov-16 00:25N 58°52' E 009°25'0 0.0
2017-Nov-15 23:58N 58°52' E 009°25'0 0.0
2017-Nov-15 23:28N 58°52' E 009°25'0 0.0
2017-Nov-15 22:58N 58°52' E 009°25'0 0.0
2017-Nov-15 22:28N 58°52' E 009°25'0 0.0
2017-Nov-15 21:58N 58°52' E 009°25'0 0.0
2017-Nov-15 21:22N 58°52' E 009°25'0 0.0
2017-Nov-15 20:52N 58°52' E 009°25'0 0.0
2017-Nov-15 20:28N 58°52' E 009°25'0 0.0
2017-Nov-15 19:58N 58°52' E 009°25'0 0.0
2017-Nov-15 19:28N 58°52' E 009°25'0 0.0
2017-Nov-15 18:58N 58°52' E 009°25'0 0.0
2017-Nov-15 18:28N 58°52' E 009°25'0 0.0
2017-Nov-15 17:46N 58°52' E 009°25'0 0.0
2017-Nov-15 17:28N 58°52' E 009°25'0 0.0
2017-Nov-15 16:58N 58°52' E 009°25'0 0.0
2017-Nov-15 16:28N 58°52' E 009°25'0 0.0
2017-Nov-15 15:22N 58°52' E 009°25'0 0.1
2017-Nov-15 15:00N 58°52' E 009°25'4 7.1
2017-Nov-15 14:30N 58°49' E 009°29'4 7.0
2017-Nov-15 14:00N 58°47' E 009°35'7 1.0
2017-Nov-15 07:14N 58°44' E 009°46'0 1.6
2017-Nov-15 06:59N 58°44' E 009°46'1 1.7
2017-Nov-15 06:30N 58°43' E 009°45'1 1.6
2017-Nov-15 06:00N 58°43' E 009°45'1 1.6
2017-Nov-15 05:30N 58°42' E 009°44'14 3.7
2017-Nov-15 01:36N 58°52' E 009°25'0 0.0
2017-Nov-15 01:27N 58°52' E 009°25'0 0.0
2017-Nov-15 00:57N 58°52' E 009°25'0 0.0
2017-Nov-15 00:27N 58°52' E 009°25'0 0.0
2017-Nov-14 23:51N 58°52' E 009°25'0 0.0
2017-Nov-14 23:27N 58°52' E 009°25'0 0.0
2017-Nov-14 22:57N 58°52' E 009°25'0 0.0
2017-Nov-14 22:30N 58°52' E 009°25'0 0.0
2017-Nov-14 22:00N 58°52' E 009°25'0 0.0
2017-Nov-14 21:27N 58°52' E 009°25'0 0.0
2017-Nov-14 20:57N 58°52' E 009°25'0 0.0
2017-Nov-14 20:21N 58°52' E 009°25'0 0.0
2017-Nov-14 19:57N 58°52' E 009°25'0 0.0
2017-Nov-14 19:27N 58°52' E 009°25'0 0.0
2017-Nov-14 18:57N 58°52' E 009°25'0 0.0
2017-Nov-14 18:21N 58°52' E 009°25'0 0.0
2017-Nov-14 17:57N 58°52' E 009°25'0 0.0
2017-Nov-14 17:27N 58°52' E 009°25'0 0.0
2017-Nov-14 16:57N 58°52' E 009°25'0 0.0
2017-Nov-14 16:27N 58°52' E 009°25'0 0.0
2017-Nov-14 15:57N 58°52' E 009°25'0 0.0
2017-Nov-14 15:27N 58°52' E 009°25'0 0.1
2017-Nov-14 14:58N 58°52' E 009°25'1 2.8
2017-Nov-14 14:30N 58°51' E 009°27'4 7.1
2017-Nov-14 14:00N 58°49' E 009°32'4 7.4
2017-Nov-14 13:30N 58°47' E 009°38'4 7.2
2017-Nov-14 13:00N 58°46' E 009°45'1 2.4
2017-Nov-14 12:29N 58°46' E 009°47'0 0.3
2017-Nov-14 12:00N 58°46' E 009°47'1 1.3
2017-Nov-14 11:27N 58°46' E 009°47'2 1.6
2017-Nov-14 10:06N 58°48' E 009°46'0 1.2
2017-Nov-14 09:59N 58°48' E 009°46'1 1.2
2017-Nov-14 09:30N 58°48' E 009°45'11 1.4
2017-Nov-14 01:35N 58°52' E 009°25'0 0.2
2017-Nov-14 01:22N 58°52' E 009°25'0 0.0
2017-Nov-14 00:55N 58°52' E 009°25'0 0.0
2017-Nov-14 00:25N 58°52' E 009°25'0 0.0
2017-Nov-13 23:55N 58°52' E 009°25'0 0.0
2017-Nov-13 23:28N 58°52' E 009°25'0 0.0
2017-Nov-13 22:55N 58°52' E 009°25'0 0.0
2017-Nov-13 22:25N 58°52' E 009°25'0 0.0
2017-Nov-13 21:55N 58°52' E 009°25'  
2017-Nov-07 02:59N 58°52' E 009°25'0 0.0
2017-Nov-07 02:29N 58°52' E 009°25'0 0.0
2017-Nov-07 01:56N 58°52' E 009°25'0 0.0
2017-Nov-07 01:26N 58°52' E 009°25'0 0.0
2017-Nov-07 00:56N 58°52' E 009°25'0 0.0
2017-Nov-07 00:29N 58°52' E 009°25'0 0.0
2017-Nov-06 23:56N 58°52' E 009°25'0 0.0
2017-Nov-06 23:29N 58°52' E 009°25'0 0.0
2017-Nov-06 22:56N 58°52' E 009°25'0 0.0
2017-Nov-06 22:29N 58°52' E 009°25'0 0.0
2017-Nov-06 21:56N 58°52' E 009°25'0 0.0
2017-Nov-06 21:26N 58°52' E 009°25'0 0.0
2017-Nov-06 20:56N 58°52' E 009°25'0 0.0
2017-Nov-06 20:26N 58°52' E 009°25'  
Track history (hours):
 
Tides and Currents Weather Stations Pressure Air Temp Water Temp Dewpoint Dewpoint Depression Visibility Wind Speed Wind Dir Waves Ship Positions

Risoy

Last reported at 2017-Nov-16 02:40 UTC. Time now 2017-Dec-13 07:13 UTC.
Position N 58°52' E 009°25'.
Warning: this ship's position is 27 days out of date.

Length 14 m.

Type: Fishing. MMSI: 257308740.

Date/timePositionNaut miles runAvg speedWind from/ knotsBaromVisibWave heightAir tempDewpointWater temp
2017-Nov-16 02:40N 58°52' E 009°25'0 0.0
2017-Nov-16 02:28N 58°52' E 009°25'0 0.0
2017-Nov-16 01:58N 58°52' E 009°25'0 0.0
2017-Nov-16 01:28N 58°52' E 009°25'0 0.0
2017-Nov-16 00:58N 58°52' E 009°25'0 0.0
2017-Nov-16 00:25N 58°52' E 009°25'0 0.0
2017-Nov-15 23:58N 58°52' E 009°25'0 0.0
2017-Nov-15 23:28N 58°52' E 009°25'0 0.0
2017-Nov-15 22:58N 58°52' E 009°25'0 0.0
2017-Nov-15 22:28N 58°52' E 009°25'0 0.0
2017-Nov-15 21:58N 58°52' E 009°25'0 0.0
2017-Nov-15 21:22N 58°52' E 009°25'0 0.0
2017-Nov-15 20:52N 58°52' E 009°25'0 0.0
2017-Nov-15 20:28N 58°52' E 009°25'0 0.0
2017-Nov-15 19:58N 58°52' E 009°25'0 0.0
2017-Nov-15 19:28N 58°52' E 009°25'0 0.0
2017-Nov-15 18:58N 58°52' E 009°25'0 0.0
2017-Nov-15 18:28N 58°52' E 009°25'0 0.0
2017-Nov-15 17:46N 58°52' E 009°25'0 0.0
2017-Nov-15 17:28N 58°52' E 009°25'0 0.0
2017-Nov-15 16:58N 58°52' E 009°25'0 0.0
2017-Nov-15 16:28N 58°52' E 009°25'0 0.0
2017-Nov-15 15:22N 58°52' E 009°25'0 0.1
2017-Nov-15 15:00N 58°52' E 009°25'4 7.1
2017-Nov-15 14:30N 58°49' E 009°29'4 7.0
2017-Nov-15 14:00N 58°47' E 009°35'7 1.0
2017-Nov-15 07:14N 58°44' E 009°46'0 1.6
2017-Nov-15 06:59N 58°44' E 009°46'1 1.7
2017-Nov-15 06:30N 58°43' E 009°45'1 1.6
2017-Nov-15 06:00N 58°43' E 009°45'1 1.6
2017-Nov-15 05:30N 58°42' E 009°44'14 3.7
2017-Nov-15 01:36N 58°52' E 009°25'0 0.0
2017-Nov-15 01:27N 58°52' E 009°25'0 0.0
2017-Nov-15 00:57N 58°52' E 009°25'0 0.0
2017-Nov-15 00:27N 58°52' E 009°25'0 0.0
2017-Nov-14 23:51N 58°52' E 009°25'0 0.0
2017-Nov-14 23:27N 58°52' E 009°25'0 0.0
2017-Nov-14 22:57N 58°52' E 009°25'0 0.0
2017-Nov-14 22:30N 58°52' E 009°25'0 0.0
2017-Nov-14 22:00N 58°52' E 009°25'0 0.0
2017-Nov-14 21:27N 58°52' E 009°25'0 0.0
2017-Nov-14 20:57N 58°52' E 009°25'0 0.0
2017-Nov-14 20:21N 58°52' E 009°25'0 0.0
2017-Nov-14 19:57N 58°52' E 009°25'0 0.0
2017-Nov-14 19:27N 58°52' E 009°25'0 0.0
2017-Nov-14 18:57N 58°52' E 009°25'0 0.0
2017-Nov-14 18:21N 58°52' E 009°25'0 0.0
2017-Nov-14 17:57N 58°52' E 009°25'0 0.0
2017-Nov-14 17:27N 58°52' E 009°25'0 0.0
2017-Nov-14 16:57N 58°52' E 009°25'0 0.0
2017-Nov-14 16:27N 58°52' E 009°25'0 0.0
2017-Nov-14 15:57N 58°52' E 009°25'0 0.0
2017-Nov-14 15:27N 58°52' E 009°25'0 0.1
2017-Nov-14 14:58N 58°52' E 009°25'1 2.8
2017-Nov-14 14:30N 58°51' E 009°27'4 7.1
2017-Nov-14 14:00N 58°49' E 009°32'4 7.4
2017-Nov-14 13:30N 58°47' E 009°38'4 7.2
2017-Nov-14 13:00N 58°46' E 009°45'1 2.4
2017-Nov-14 12:29N 58°46' E 009°47'0 0.3
2017-Nov-14 12:00N 58°46' E 009°47'1 1.3
2017-Nov-14 11:27N 58°46' E 009°47'2 1.6
2017-Nov-14 10:06N 58°48' E 009°46'0 1.2
2017-Nov-14 09:59N 58°48' E 009°46'1 1.2
2017-Nov-14 09:30N 58°48' E 009°45'11 1.4
2017-Nov-14 01:35N 58°52' E 009°25'0 0.2
2017-Nov-14 01:22N 58°52' E 009°25'0 0.0
2017-Nov-14 00:55N 58°52' E 009°25'0 0.0
2017-Nov-14 00:25N 58°52' E 009°25'0 0.0
2017-Nov-13 23:55N 58°52' E 009°25'0 0.0
2017-Nov-13 23:28N 58°52' E 009°25'0 0.0
2017-Nov-13 22:55N 58°52' E 009°25'0 0.0
2017-Nov-13 22:25N 58°52' E 009°25'0 0.0
2017-Nov-13 21:55N 58°52' E 009°25'  
2017-Nov-07 02:59N 58°52' E 009°25'0 0.0
2017-Nov-07 02:29N 58°52' E 009°25'0 0.0
2017-Nov-07 01:56N 58°52' E 009°25'0 0.0
2017-Nov-07 01:26N 58°52' E 009°25'0 0.0
2017-Nov-07 00:56N 58°52' E 009°25'0 0.0
2017-Nov-07 00:29N 58°52' E 009°25'0 0.0
2017-Nov-06 23:56N 58°52' E 009°25'0 0.0
2017-Nov-06 23:29N 58°52' E 009°25'0 0.0
2017-Nov-06 22:56N 58°52' E 009°25'0 0.0
2017-Nov-06 22:29N 58°52' E 009°25'0 0.0
2017-Nov-06 21:56N 58°52' E 009°25'0 0.0
2017-Nov-06 21:26N 58°52' E 009°25'0 0.0
2017-Nov-06 20:56N 58°52' E 009°25'0 0.0
2017-Nov-06 20:26N 58°52' E 009°25'  

Dump ship's entire track history